createdAt,value
2023-01-11T00:00:32.303Z,93.71
2023-01-11T00:03:00.262Z,94.34
2023-01-11T00:05:27.353Z,95.00
2023-01-11T00:07:54.030Z,95.21
2023-01-11T00:10:20.957Z,95.59
2023-01-11T00:12:48.418Z,95.61
2023-01-11T00:15:15.814Z,95.98
2023-01-11T00:17:42.111Z,95.77
2023-01-11T00:20:09.934Z,95.32
2023-01-11T00:22:36.461Z,94.56
2023-01-11T00:25:03.425Z,93.74
2023-01-11T00:27:29.735Z,93.54
2023-01-11T00:29:56.029Z,93.71
2023-01-11T00:32:23.188Z,93.36
2023-01-11T00:34:49.550Z,92.64
2023-01-11T00:37:15.917Z,92.55
2023-01-11T00:39:42.218Z,93.04
2023-01-11T00:42:11.297Z,93.22
2023-01-11T00:44:37.593Z,92.53
2023-01-11T00:47:03.971Z,92.24
2023-01-11T00:49:30.528Z,91.75
2023-01-11T00:51:56.918Z,92.03
2023-01-11T00:54:23.271Z,91.73
2023-01-11T00:56:49.560Z,91.80
2023-01-11T00:59:15.949Z,91.86
2023-01-11T01:01:42.302Z,91.50
2023-01-11T01:04:08.703Z,91.15
2023-01-11T01:06:35.052Z,91.06
2023-01-11T01:09:01.454Z,91.31
2023-01-11T01:11:27.765Z,90.94
2023-01-11T01:13:54.071Z,90.91
2023-01-11T01:16:20.612Z,91.00
2023-01-11T01:18:46.936Z,90.79
2023-01-11T01:21:13.293Z,90.93
2023-01-11T01:23:39.601Z,90.64
2023-01-11T01:26:06.987Z,90.79
2023-01-11T01:28:33.365Z,90.93
2023-01-11T01:30:59.681Z,91.04
2023-01-11T01:33:25.989Z,91.07
2023-01-11T01:35:52.291Z,91.17
2023-01-11T01:38:18.629Z,91.56
2023-01-11T01:40:47.813Z,91.27
2023-01-11T01:43:17.164Z,91.38
2023-01-11T01:45:43.533Z,91.72
2023-01-11T01:48:13.103Z,91.88
2023-01-11T01:50:48.750Z,91.39
2023-01-11T01:53:18.675Z,91.42
2023-01-11T01:55:54.614Z,91.07
2023-01-11T01:58:26.235Z,91.35
2023-01-11T02:00:52.689Z,91.15
2023-01-11T02:03:22.550Z,91.12
2023-01-11T02:05:50.225Z,91.08
2023-01-11T02:08:32.659Z,90.98
2023-01-11T02:10:59.589Z,91.26
2023-01-11T02:13:26.813Z,91.05
2023-01-11T02:15:55.763Z,91.39
2023-01-11T02:18:22.143Z,91.32
2023-01-11T02:21:16.048Z,91.11
2023-01-11T02:24:01.145Z,90.76
2023-01-11T02:26:47.145Z,90.37
2023-01-11T02:29:40.733Z,90.13
2023-01-11T02:32:39.023Z,89.55
2023-01-11T02:35:17.646Z,89.80
2023-01-11T02:38:03.736Z,90.68
2023-01-11T02:40:48.211Z,91.16
2023-01-11T02:43:26.920Z,92.02
2023-01-11T02:46:11.791Z,92.61
2023-01-11T02:49:00.242Z,93.57
2023-01-11T02:51:37.875Z,94.85
2023-01-11T02:54:09.476Z,95.05
2023-01-11T02:56:43.381Z,94.83
2023-01-11T02:59:15.573Z,95.10
2023-01-11T03:01:50.382Z,95.03
2023-01-11T03:04:26.071Z,95.11
2023-01-11T03:07:12.783Z,94.76
2023-01-11T03:09:48.329Z,94.46
2023-01-11T03:12:38.554Z,93.78
2023-01-11T03:15:21.641Z,92.38
2023-01-11T03:18:07.169Z,92.42
2023-01-11T03:20:38.772Z,91.88
2023-01-11T03:23:26.321Z,91.73
2023-01-11T03:26:03.040Z,92.06
2023-01-11T03:28:38.104Z,92.60
2023-01-11T03:31:24.850Z,93.49
2023-01-11T03:34:26.358Z,94.20
2023-01-11T03:36:58.298Z,95.13
2023-01-11T03:39:34.471Z,95.71
2023-01-11T03:42:05.221Z,96.18
2023-01-11T03:44:35.414Z,96.62
2023-01-11T03:47:06.854Z,97.03
2023-01-11T03:49:37.700Z,97.53
2023-01-11T03:52:09.235Z,97.99
2023-01-11T03:54:36.732Z,97.54
2023-01-11T03:57:19.751Z,97.33
2023-01-11T03:59:46.367Z,96.84
2023-01-11T04:02:27.523Z,96.48
2023-01-11T04:04:54.287Z,96.23
2023-01-11T04:07:20.597Z,95.80
2023-01-11T04:09:46.915Z,95.35
2023-01-11T04:12:13.196Z,95.58
2023-01-11T04:14:39.511Z,95.53
2023-01-11T04:17:05.795Z,95.19
2023-01-11T04:19:32.119Z,95.92
2023-01-11T04:21:58.515Z,96.21
2023-01-11T04:24:24.860Z,96.56
2023-01-11T04:26:51.150Z,96.96
2023-01-11T04:29:17.469Z,96.86
2023-01-11T04:31:43.884Z,96.77
2023-01-11T04:34:11.732Z,97.09
2023-01-11T04:36:38.161Z,98.04
2023-01-11T04:39:04.476Z,98.36
2023-01-11T04:41:30.781Z,98.83
2023-01-11T04:43:57.083Z,99.45
2023-01-11T04:46:24.230Z,99.61
2023-01-11T04:48:51.484Z,100.00
2023-01-11T04:51:18.121Z,100.00
2023-01-11T04:53:47.033Z,100.00
2023-01-11T04:56:13.388Z,100.00
2023-01-11T04:58:39.671Z,99.83
2023-01-11T05:01:10.650Z,99.86
2023-01-11T05:03:37.256Z,99.89
2023-01-11T05:06:03.950Z,99.28
2023-01-11T05:08:30.955Z,99.11
2023-01-11T05:11:02.535Z,99.23
2023-01-11T05:13:29.319Z,99.23
2023-01-11T05:15:55.627Z,99.64
2023-01-11T05:18:21.931Z,99.30
2023-01-11T05:20:49.274Z,99.75
2023-01-11T05:23:15.609Z,99.32
2023-01-11T05:25:41.920Z,99.43
2023-01-11T05:28:08.229Z,99.94
2023-01-11T05:30:34.520Z,99.82
2023-01-11T05:33:00.833Z,99.85
2023-01-11T05:35:27.126Z,100.00
2023-01-11T05:37:53.430Z,99.82
2023-01-11T05:40:19.718Z,99.52
2023-01-11T05:42:46.326Z,99.55
2023-01-11T05:45:12.685Z,99.79
2023-01-11T05:47:38.997Z,99.68
2023-01-11T05:50:05.822Z,99.96
2023-01-11T05:52:32.142Z,99.88
2023-01-11T05:54:58.458Z,100.00
2023-01-11T05:57:24.878Z,100.00
2023-01-11T05:59:51.215Z,100.00
2023-01-11T06:02:17.650Z,100.00
2023-01-11T06:04:43.967Z,100.00
2023-01-11T06:07:10.270Z,100.00
2023-01-11T06:09:36.551Z,100.00
2023-01-11T06:12:02.935Z,100.00
2023-01-11T06:14:29.246Z,100.00
2023-01-11T06:16:55.567Z,100.00
2023-01-11T06:19:22.083Z,100.00
2023-01-11T06:21:48.419Z,100.00
2023-01-11T06:24:14.727Z,100.00
2023-01-11T06:26:41.026Z,100.00
2023-01-11T06:29:07.366Z,100.00
2023-01-11T06:31:33.669Z,100.00
2023-01-11T06:33:59.965Z,100.00
2023-01-11T06:36:28.272Z,100.00
2023-01-11T06:38:55.898Z,100.00
2023-01-11T06:41:22.215Z,100.00
2023-01-11T06:43:50.192Z,100.00
2023-01-11T06:46:17.075Z,100.00
2023-01-11T06:48:44.121Z,100.00
2023-01-11T06:51:10.724Z,100.00
2023-01-11T06:53:37.454Z,100.00
2023-01-11T06:56:04.086Z,100.00
2023-01-11T06:58:30.403Z,100.00
2023-01-11T07:00:57.494Z,100.00
2023-01-11T07:03:27.153Z,100.00
2023-01-11T07:05:54.739Z,100.00
2023-01-11T07:08:21.072Z,100.00
2023-01-11T07:10:47.422Z,100.00
2023-01-11T07:13:14.305Z,100.00
2023-01-11T07:15:40.646Z,100.00
2023-01-11T07:18:06.971Z,100.00
2023-01-11T07:20:33.287Z,100.00
2023-01-11T07:23:00.813Z,100.00
2023-01-11T07:25:28.364Z,100.00
2023-01-11T07:28:02.985Z,100.00
2023-01-11T07:30:31.860Z,100.00
2023-01-11T07:32:59.866Z,100.00
2023-01-11T07:35:28.982Z,100.00
2023-01-11T07:37:55.885Z,100.00
2023-01-11T07:40:22.281Z,100.00
2023-01-11T07:42:53.275Z,100.00
2023-01-11T07:45:19.697Z,100.00
2023-01-11T07:47:49.807Z,100.00
2023-01-11T07:50:16.252Z,100.00
2023-01-11T07:52:51.431Z,100.00
2023-01-11T07:55:17.749Z,100.00
2023-01-11T07:57:44.121Z,100.00
2023-01-11T08:00:11.031Z,100.00
2023-01-11T08:02:37.682Z,100.00
2023-01-11T08:05:04.660Z,100.00
2023-01-11T08:07:30.970Z,100.00
2023-01-11T08:09:57.274Z,100.00
2023-01-11T08:12:23.656Z,100.00
2023-01-11T08:14:49.952Z,100.00
2023-01-11T08:17:16.593Z,100.00
2023-01-11T08:19:43.665Z,100.00
2023-01-11T08:22:10.242Z,100.00
2023-01-11T08:24:36.577Z,100.00
2023-01-11T08:27:03.818Z,100.00
2023-01-11T08:29:30.200Z,100.00
2023-01-11T08:31:56.657Z,100.00
2023-01-11T08:34:23.077Z,100.00
2023-01-11T08:36:49.411Z,100.00
2023-01-11T08:39:15.716Z,100.00
2023-01-11T08:41:42.104Z,100.00
2023-01-11T08:44:11.692Z,100.00
2023-01-11T08:46:38.242Z,100.00
2023-01-11T08:49:04.778Z,100.00
2023-01-11T08:51:31.244Z,100.00
2023-01-11T08:53:57.559Z,100.00
2023-01-11T08:56:23.868Z,100.00
2023-01-11T08:58:50.178Z,100.00
2023-01-11T09:01:16.494Z,100.00
2023-01-11T09:03:42.826Z,100.00
2023-01-11T09:06:09.226Z,100.00
2023-01-11T09:08:35.535Z,100.00
2023-01-11T09:11:01.844Z,100.00
2023-01-11T09:13:28.157Z,100.00
2023-01-11T09:15:57.819Z,100.00
2023-01-11T09:18:24.346Z,100.00
2023-01-11T09:20:51.381Z,100.00
2023-01-11T09:23:17.678Z,100.00
2023-01-11T09:25:44.060Z,100.00
2023-01-11T09:28:10.379Z,100.00
2023-01-11T09:30:36.695Z,100.00
2023-01-11T09:33:03.043Z,100.00
2023-01-11T09:35:29.348Z,100.00
2023-01-11T09:37:55.651Z,100.00
2023-01-11T09:40:30.680Z,100.00
2023-01-11T09:42:57.023Z,100.00
2023-01-11T09:45:25.473Z,100.00
2023-01-11T09:48:06.713Z,100.00
2023-01-11T09:50:36.501Z,100.00
2023-01-11T09:53:05.902Z,100.00
2023-01-11T09:55:44.315Z,100.00
2023-01-11T09:58:50.968Z,100.00
2023-01-11T10:01:44.328Z,100.00
2023-01-11T10:04:29.410Z,100.00
2023-01-11T10:07:21.860Z,100.00
2023-01-11T10:18:27.364Z,100.00
2023-01-11T10:19:45.245Z,100.00
2023-01-11T10:22:19.167Z,100.00
2023-01-11T10:25:12.982Z,100.00
2023-01-11T10:27:41.405Z,100.00
2023-01-11T10:30:20.975Z,100.00
2023-01-11T10:32:50.232Z,100.00
2023-01-11T10:35:28.507Z,100.00
2023-01-11T10:37:57.073Z,100.00
2023-01-11T10:40:31.626Z,100.00
2023-01-11T10:43:01.281Z,100.00
2023-01-11T10:45:38.812Z,100.00
2023-01-11T10:48:20.006Z,100.00
2023-01-11T10:51:12.824Z,100.00
2023-01-11T10:57:01.770Z,100.00
2023-01-11T10:59:57.901Z,100.00
2023-01-11T11:02:43.067Z,99.95
2023-01-11T11:05:23.351Z,99.77
2023-01-11T11:07:58.077Z,99.06
2023-01-11T11:10:34.300Z,99.13
2023-01-11T11:13:26.417Z,98.44
2023-01-11T11:16:17.705Z,97.80
2023-01-11T11:18:44.163Z,97.28
2023-01-11T11:21:21.508Z,97.55
2023-01-11T11:23:54.444Z,97.15
2023-01-11T11:26:25.935Z,96.96
2023-01-11T11:29:00.919Z,96.93
2023-01-11T11:31:28.910Z,96.49
2023-01-11T11:33:55.931Z,96.15
2023-01-11T11:36:24.757Z,95.15
2023-01-11T11:39:27.766Z,94.81
2023-01-11T11:42:05.386Z,94.29
2023-01-11T11:44:32.019Z,93.34
2023-01-11T11:46:59.451Z,93.48
2023-01-11T11:49:26.354Z,93.75
2023-01-11T11:51:53.651Z,93.62
2023-01-11T11:54:22.055Z,93.40
2023-01-11T11:56:49.244Z,92.79
2023-01-11T11:59:19.305Z,91.63
2023-01-11T12:01:48.416Z,92.14
2023-01-11T12:04:18.290Z,92.07
2023-01-11T12:07:05.261Z,92.12
2023-01-11T12:09:34.062Z,91.64
2023-01-11T12:12:00.896Z,91.85
2023-01-11T12:14:32.526Z,90.62
2023-01-11T12:16:59.213Z,89.16
2023-01-11T12:19:42.064Z,88.82
2023-01-11T12:22:26.108Z,89.08
2023-01-11T12:25:07.728Z,88.62
2023-01-11T12:27:52.323Z,88.69
2023-01-11T12:30:35.372Z,89.51
2023-01-11T12:33:15.067Z,89.32
2023-01-11T12:35:52.308Z,89.55
2023-01-11T12:38:48.979Z,87.45
2023-01-11T12:41:52.956Z,85.89
2023-01-11T12:44:42.391Z,86.59
2023-01-11T12:47:18.084Z,86.44
2023-01-11T12:50:00.296Z,87.22
2023-01-11T12:52:42.875Z,85.87
2023-01-11T12:55:25.604Z,85.43
2023-01-11T12:58:12.053Z,86.34
2023-01-11T13:00:58.072Z,86.42
2023-01-11T13:03:45.931Z,86.99
2023-01-11T13:06:25.499Z,86.37
2023-01-11T13:09:28.139Z,86.15
2023-01-11T13:12:19.356Z,84.44
2023-01-11T13:15:06.690Z,83.85
2023-01-11T13:18:00.179Z,83.93
2023-01-11T13:21:00.060Z,84.25
2023-01-11T13:23:38.747Z,84.59
2023-01-11T13:26:21.632Z,84.15
2023-01-11T13:28:54.046Z,82.35
2023-01-11T13:31:21.147Z,82.54
2023-01-11T13:33:53.584Z,81.82
2023-01-11T13:36:25.655Z,80.74
2023-01-11T13:39:01.419Z,81.49
2023-01-11T13:41:33.787Z,81.99
2023-01-11T13:44:10.051Z,81.72
2023-01-11T13:46:41.633Z,83.40
2023-01-11T13:49:17.252Z,83.56
2023-01-11T13:52:09.478Z,84.37
2023-01-11T13:54:49.208Z,84.86
2023-01-11T13:57:24.207Z,83.85
2023-01-11T13:59:57.305Z,84.10
2023-01-11T14:02:38.043Z,83.95
2023-01-11T14:05:14.172Z,83.68
2023-01-11T14:07:54.230Z,82.26
2023-01-11T14:10:33.091Z,81.38
2023-01-11T14:13:18.710Z,81.19
2023-01-11T14:15:58.430Z,81.61
2023-01-11T14:18:41.173Z,80.77
2023-01-11T14:21:18.889Z,81.61
2023-01-11T14:23:51.518Z,80.13
2023-01-11T14:26:44.789Z,81.02
2023-01-11T14:29:48.512Z,80.57
2023-01-11T14:32:17.493Z,81.79
2023-01-11T14:35:16.916Z,81.21
2023-01-11T14:38:11.765Z,82.25
2023-01-11T14:41:28.951Z,82.13
2023-01-11T14:44:21.292Z,80.31
2023-01-11T14:47:29.254Z,80.45
2023-01-11T14:50:20.485Z,80.52
2023-01-11T14:52:48.602Z,79.20
2023-01-11T14:55:22.213Z,79.52
2023-01-11T14:58:09.733Z,79.30
2023-01-11T15:00:36.001Z,80.59
2023-01-11T15:03:05.336Z,80.95
2023-01-11T15:05:31.623Z,80.84
2023-01-11T15:08:13.246Z,81.06
2023-01-11T15:10:45.623Z,82.24
2023-01-11T15:13:23.840Z,81.79
2023-01-11T15:15:51.716Z,81.79
2023-01-11T15:18:22.332Z,81.36
2023-01-11T15:20:55.434Z,81.24
2023-01-11T15:23:23.263Z,81.58
2023-01-11T15:25:59.958Z,81.95
2023-01-11T15:28:42.039Z,82.16
2023-01-11T15:31:37.982Z,83.17
2023-01-11T15:34:40.297Z,82.97
2023-01-11T15:37:32.539Z,83.39
2023-01-11T15:40:08.963Z,84.00
2023-01-11T15:43:14.071Z,84.08
2023-01-11T15:45:49.798Z,84.03
2023-01-11T15:48:37.077Z,83.23
2023-01-11T15:51:11.753Z,83.42
2023-01-11T15:54:06.237Z,83.23
2023-01-11T15:56:50.223Z,83.65
2023-01-11T16:00:06.880Z,83.67
2023-01-11T16:03:10.705Z,83.66
2023-01-11T16:06:12.287Z,82.79
2023-01-11T16:09:19.149Z,83.53
2023-01-11T16:12:18.741Z,84.18
2023-01-11T16:15:06.665Z,84.83
2023-01-11T16:17:32.977Z,84.02
2023-01-11T16:20:22.753Z,84.33
2023-01-11T16:23:02.361Z,84.55
2023-01-11T16:25:31.391Z,83.94
2023-01-11T16:27:59.365Z,84.27
2023-01-11T16:30:27.635Z,84.45
2023-01-11T16:33:20.133Z,84.04
2023-01-11T16:35:46.604Z,83.26
2023-01-11T16:38:21.170Z,82.18
2023-01-11T16:40:52.561Z,82.75
2023-01-11T16:43:24.144Z,83.48
2023-01-11T16:45:52.733Z,83.45
2023-01-11T16:48:26.738Z,84.02
2023-01-11T16:51:00.896Z,83.73
2023-01-11T16:53:29.210Z,83.48
2023-01-11T16:56:06.781Z,83.91
2023-01-11T16:58:36.124Z,83.94
2023-01-11T17:01:05.891Z,84.23
2023-01-11T17:03:37.148Z,83.98
2023-01-11T17:06:09.297Z,83.90
2023-01-11T17:08:38.759Z,85.28
2023-01-11T17:11:25.164Z,83.77
2023-01-11T17:14:12.874Z,84.33
2023-01-11T17:16:42.873Z,84.77
2023-01-11T17:19:21.433Z,85.38
2023-01-11T17:21:51.047Z,84.19
2023-01-11T17:24:18.900Z,83.77
2023-01-11T17:26:49.040Z,83.36
2023-01-11T17:29:28.251Z,83.71
2023-01-11T17:31:56.901Z,84.07
2023-01-11T17:34:27.319Z,84.35
2023-01-11T17:36:54.589Z,83.68
2023-01-11T17:39:31.008Z,83.77
2023-01-11T17:41:59.057Z,84.12
2023-01-11T17:44:25.590Z,84.22
2023-01-11T17:46:51.964Z,84.32
2023-01-11T17:49:24.036Z,84.08
2023-01-11T17:51:50.321Z,83.89
2023-01-11T17:54:23.668Z,83.83
2023-01-11T17:56:55.816Z,84.14
2023-01-11T17:59:25.218Z,84.99
2023-01-11T18:02:04.633Z,85.37
2023-01-11T18:04:31.517Z,85.34
2023-01-11T18:07:24.231Z,84.92
2023-01-11T18:09:58.137Z,85.04
2023-01-11T18:12:33.238Z,85.38
2023-01-11T18:15:02.703Z,85.47
2023-01-11T18:17:31.843Z,85.39
2023-01-11T18:19:59.178Z,84.88
2023-01-11T18:22:59.515Z,84.71
2023-01-11T18:25:28.521Z,85.02
2023-01-11T18:28:17.821Z,84.82
2023-01-11T18:30:47.149Z,84.84
2023-01-11T18:33:17.460Z,84.92
2023-01-11T18:35:45.189Z,84.56
2023-01-11T18:38:16.994Z,83.98
2023-01-11T18:40:44.734Z,84.10
2023-01-11T18:43:12.401Z,83.95
2023-01-11T18:45:38.890Z,84.45
2023-01-11T18:48:10.843Z,84.81
2023-01-11T18:50:39.060Z,85.34
2023-01-11T18:53:10.953Z,85.36
2023-01-11T18:55:37.377Z,85.30
2023-01-11T18:58:03.735Z,85.34
2023-01-11T19:00:30.128Z,85.47
2023-01-11T19:02:56.663Z,85.36
2023-01-11T19:05:23.024Z,85.66
2023-01-11T19:07:49.543Z,85.81
2023-01-11T19:10:18.941Z,85.24
2023-01-11T19:12:45.689Z,85.11
2023-01-11T19:15:13.683Z,84.94
2023-01-11T19:17:40.334Z,85.08
2023-01-11T19:20:07.836Z,85.28
2023-01-11T19:22:34.311Z,84.84
2023-01-11T19:25:00.626Z,84.40
2023-01-11T19:27:26.948Z,84.13
2023-01-11T19:29:53.245Z,83.64
2023-01-11T19:32:19.974Z,83.00
2023-01-11T19:34:46.287Z,82.80
2023-01-11T19:37:12.580Z,82.55
2023-01-11T19:39:38.888Z,82.60
2023-01-11T19:42:05.242Z,82.86
2023-01-11T19:44:34.153Z,83.24
2023-01-11T19:47:17.229Z,83.47
2023-01-11T19:49:43.642Z,83.38
2023-01-11T19:52:15.016Z,82.84
2023-01-11T19:54:42.992Z,82.60
2023-01-11T19:57:11.031Z,82.57
2023-01-11T19:59:37.365Z,82.02
2023-01-11T20:02:03.875Z,82.06
2023-01-11T20:04:30.204Z,82.45
2023-01-11T20:06:56.544Z,82.46
2023-01-11T20:09:22.873Z,81.72
2023-01-11T20:11:49.219Z,81.84
2023-01-11T20:14:16.640Z,81.58
2023-01-11T20:16:42.971Z,81.01
2023-01-11T20:19:09.392Z,81.03
2023-01-11T20:21:35.770Z,80.89
2023-01-11T20:24:02.781Z,80.73
2023-01-11T20:26:29.553Z,80.97
2023-01-11T20:28:58.310Z,80.32
2023-01-11T20:31:26.712Z,80.51
2023-01-11T20:33:54.972Z,80.27
2023-01-11T20:36:21.445Z,80.65
2023-01-11T20:38:47.756Z,80.07
2023-01-11T20:41:18.385Z,80.13
2023-01-11T20:43:44.693Z,79.61
2023-01-11T20:46:11.004Z,79.01
2023-01-11T20:48:37.321Z,79.03
2023-01-11T20:51:03.861Z,78.71
2023-01-11T20:53:30.171Z,78.93
2023-01-11T20:55:56.537Z,78.94
2023-01-11T20:58:22.998Z,78.13
2023-01-11T21:00:49.311Z,78.35
2023-01-11T21:03:15.832Z,78.41
2023-01-11T21:05:42.154Z,78.37
2023-01-11T21:08:08.515Z,77.34
2023-01-11T21:10:34.857Z,76.76
2023-01-11T21:13:01.212Z,77.25
2023-01-11T21:15:27.503Z,76.65
2023-01-11T21:17:53.831Z,76.66
2023-01-11T21:20:20.199Z,76.52
2023-01-11T21:22:46.542Z,76.29
2023-01-11T21:25:12.844Z,76.60
2023-01-11T21:27:39.453Z,76.69
2023-01-11T21:30:06.349Z,76.75
2023-01-11T21:32:32.662Z,76.91
2023-01-11T21:34:58.966Z,77.42
2023-01-11T21:37:25.258Z,77.24
2023-01-11T21:39:51.585Z,76.47
2023-01-11T21:42:17.892Z,76.31
2023-01-11T21:44:44.217Z,76.26
2023-01-11T21:47:10.550Z,77.46
2023-01-11T21:49:36.859Z,78.34
2023-01-11T21:52:03.377Z,77.88
2023-01-11T21:54:29.698Z,77.61
2023-01-11T21:56:56.014Z,79.13
2023-01-11T21:59:22.452Z,79.34
2023-01-11T22:01:48.803Z,79.64
2023-01-11T22:04:18.376Z,79.83
2023-01-11T22:06:45.833Z,81.28
2023-01-11T22:09:12.156Z,81.79
2023-01-11T22:11:39.558Z,81.69
2023-01-11T22:14:05.939Z,80.81
2023-01-11T22:16:33.215Z,81.74
2023-01-11T22:19:00.667Z,81.62
2023-01-11T22:21:27.623Z,82.07
2023-01-11T22:23:56.680Z,83.22
2023-01-11T22:26:24.266Z,83.56
2023-01-11T22:28:55.614Z,84.23
2023-01-11T22:31:22.237Z,84.30
2023-01-11T22:33:48.613Z,84.61
2023-01-11T22:36:15.311Z,85.15
2023-01-11T22:38:42.242Z,85.42
2023-01-11T22:41:09.100Z,86.21
2023-01-11T22:43:35.807Z,86.95
2023-01-11T22:46:02.125Z,88.00
2023-01-11T22:48:28.944Z,89.58
2023-01-11T22:50:55.241Z,89.51
2023-01-11T22:53:21.614Z,90.02
2023-01-11T22:55:47.892Z,90.46
2023-01-11T22:58:14.310Z,90.95
2023-01-11T23:00:40.643Z,90.96
2023-01-11T23:03:07.072Z,91.26
2023-01-11T23:05:33.443Z,91.50
2023-01-11T23:07:59.748Z,92.17
2023-01-11T23:10:26.122Z,92.58
2023-01-11T23:12:52.411Z,91.95
2023-01-11T23:15:18.722Z,92.12
2023-01-11T23:17:46.909Z,92.65
2023-01-11T23:20:13.223Z,93.06
2023-01-11T23:22:39.553Z,92.81
2023-01-11T23:25:06.584Z,92.35
2023-01-11T23:27:32.885Z,92.49
2023-01-11T23:29:59.204Z,93.01
2023-01-11T23:32:25.519Z,93.07
2023-01-11T23:34:51.841Z,92.22
2023-01-11T23:37:18.123Z,92.42
2023-01-11T23:39:44.446Z,91.88
2023-01-11T23:42:11.200Z,91.70
2023-01-11T23:44:37.525Z,91.85
2023-01-11T23:47:03.894Z,91.18
2023-01-11T23:49:31.770Z,90.67
2023-01-11T23:51:58.913Z,90.21
2023-01-11T23:54:30.471Z,89.99
2023-01-11T23:56:58.009Z,89.58
2023-01-11T23:59:24.863Z,89.28
